Terminal Aerodrome Forecast
Issued by NWS

Home | Current Version | Previous Version | Text Only | Print | Product List | Glossary On
Versions: 1 2 3 4 5 6 7 8 9 10 11 12 13 14 15
727
FTUS43 KFGF 311121
TAFBJI
TAF
KBJI 311121Z 3112/0112 12014KT P6SM -SHRA OVC008
      TEMPO 3112/3115 OVC020
     FM311700 15011KT P6SM VCSH BKN020
     FM311800 16010KT P6SM VCSH BKN040
     FM312100 16010KT P6SM BKN070=

USA.gov is the U.S. government's official web portal to all federal, state and local government web resources and services.